Time,TemperatureF,DewpointF,PressureIn,WindDirection,WindDirectionDegrees,WindSpeedMPH,WindSpeedGustMPH,Humidity,HourlyPrecipIn,Conditions,Clouds,dailyrainin,SoftwareType,DateUTC
2013-01-18 00:12:00,33.2,15.0,32.50,WSW,258,6.0,9.0,48,0.00,,,0.00,weatherlink.com 1.10,2013-01-18 07:12:00,
2013-01-18 00:27:00,35.9,16.0,32.50,West,277,5.0,16.0,44,0.00,,,0.00,weatherlink.com 1.10,2013-01-18 07:27:00,
2013-01-18 00:42:00,35.2,15.0,32.50,WSW,253,4.0,9.0,44,0.00,,,0.00,weatherlink.com 1.10,2013-01-18 07:42:00,
2013-01-18 00:57:00,33.9,15.0,32.50,SE,132,2.0,7.0,46,0.00,,,0.00,weatherlink.com 1.10,2013-01-18 07:57:00,
2013-01-18 01:13:00,32.0,15.0,32.50,ESE,120,9.0,11.0,50,0.00,,,0.00,weatherlink.com 1.10,2013-01-18 08:13:00,
2013-01-18 01:28:00,31.3,15.0,32.50,SSE,154,8.0,14.0,52,0.00,,,0.00,weatherlink.com 1.10,2013-01-18 08:28:00,
2013-01-18 01:43:00,32.5,15.0,32.50,SSE,159,6.0,18.0,49,0.00,,,0.00,weatherlink.com 1.10,2013-01-18 08:43:00,
2013-01-18 01:58:00,31.8,15.0,32.50,South,176,13.0,20.0,51,0.00,,,0.00,weatherlink.com 1.10,2013-01-18 08:58:00,
2013-01-18 02:13:00,30.5,16.0,32.50,SE,130,6.0,17.0,54,0.00,,,0.00,weatherlink.com 1.10,2013-01-18 09:13:00,
2013-01-18 02:28:00,30.0,16.0,32.50,NNW,331,3.0,11.0,56,0.00,,,0.00,weatherlink.com 1.10,2013-01-18 09:28:00,
2013-01-18 02:43:00,30.0,16.0,32.50,ESE,118,7.0,14.0,56,0.00,,,0.00,weatherlink.com 1.10,2013-01-18 09:43:00,
2013-01-18 02:58:00,29.4,16.0,32.50,SE,134,7.0,11.0,57,0.00,,,0.00,weatherlink.com 1.10,2013-01-18 09:58:00,
2013-01-18 03:13:00,30.6,14.0,32.50,SSE,157,1.0,8.0,51,0.00,,,0.00,weatherlink.com 1.10,2013-01-18 10:13:00,
2013-01-18 03:28:00,33.0,15.0,32.50,West,263,4.0,16.0,48,0.00,,,0.00,weatherlink.com 1.10,2013-01-18 10:28:00,
2013-01-18 03:43:00,31.5,15.0,32.50,SW,221,12.0,13.0,51,0.00,,,0.00,weatherlink.com 1.10,2013-01-18 10:43:00,
2013-01-18 03:58:00,32.8,14.0,32.50,South,175,6.0,22.0,46,0.00,,,0.00,weatherlink.com 1.10,2013-01-18 10:58:00,
2013-01-18 04:13:00,30.6,15.0,32.50,South,170,7.0,11.0,53,0.00,,,0.00,weatherlink.com 1.10,2013-01-18 11:13:00,
2013-01-18 04:28:00,30.8,15.0,32.50,SSE,156,10.0,14.0,52,0.00,,,0.00,weatherlink.com 1.10,2013-01-18 11:28:00,
2013-01-18 04:43:00,30.7,15.0,32.50,SSE,159,8.0,11.0,52,0.00,,,0.00,weatherlink.com 1.10,2013-01-18 11:43:00,
2013-01-18 04:58:00,30.5,15.0,32.50,SSE,167,3.0,8.0,52,0.00,,,0.00,weatherlink.com 1.10,2013-01-18 11:58:00,
2013-01-18 05:13:00,31.2,14.0,32.50,SSE,168,7.0,9.0,50,0.00,,,0.00,weatherlink.com 1.10,2013-01-18 12:13:00,
2013-01-18 05:28:00,30.7,14.0,32.50,South,187,7.0,9.0,51,0.00,,,0.00,weatherlink.com 1.10,2013-01-18 12:28:00,
2013-01-18 05:43:00,33.7,14.0,32.50,West,270,7.0,28.0,44,0.00,,,0.00,weatherlink.com 1.10,2013-01-18 12:43:00,
2013-01-18 05:58:00,33.0,14.0,32.50,WSW,242,14.0,18.0,46,0.00,,,0.00,weatherlink.com 1.10,2013-01-18 12:58:00,
2013-01-18 06:13:00,32.9,15.0,32.50,WSW,246,10.0,16.0,47,0.00,,,0.00,weatherlink.com 1.10,2013-01-18 13:13:00,
2013-01-18 06:28:00,32.0,14.0,32.50,WSW,242,10.0,12.0,47,0.00,,,0.00,weatherlink.com 1.10,2013-01-18 13:28:00,
2013-01-18 06:43:00,32.1,14.0,32.50,WSW,255,8.0,15.0,47,0.00,,,0.00,weatherlink.com 1.10,2013-01-18 13:43:00,
2013-01-18 06:58:00,32.1,13.0,32.50,WSW,257,12.0,12.0,46,0.00,,,0.00,weatherlink.com 1.10,2013-01-18 13:58:00,
2013-01-18 07:13:00,32.4,13.0,32.50,West,265,6.0,21.0,45,0.00,,,0.00,weatherlink.com 1.10,2013-01-18 14:13:00,
2013-01-18 07:28:00,32.9,14.0,32.50,West,259,5.0,15.0,45,0.00,,,0.00,weatherlink.com 1.10,2013-01-18 14:28:00,
2013-01-18 07:43:00,31.8,13.0,32.50,SW,225,10.0,15.0,46,0.00,,,0.00,weatherlink.com 1.10,2013-01-18 14:43:00,
2013-01-18 07:58:00,33.3,13.0,32.50,SW,217,10.0,20.0,43,0.00,,,0.00,weatherlink.com 1.10,2013-01-18 14:58:00,
2013-01-18 08:13:00,36.1,13.0,32.50,West,266,7.0,22.0,38,0.00,,,0.00,weatherlink.com 1.10,2013-01-18 15:13:00,
2013-01-18 08:28:00,35.3,10.0,32.50,West,265,12.0,21.0,35,0.00,,,0.00,weatherlink.com 1.10,2013-01-18 15:28:00,
2013-01-18 08:43:00,35.1,10.0,32.50,WSW,245,9.0,30.0,35,0.00,,,0.00,weatherlink.com 1.10,2013-01-18 15:43:00,
2013-01-18 08:58:00,35.7,12.0,32.50,SW,229,18.0,27.0,37,0.00,,,0.00,weatherlink.com 1.10,2013-01-18 15:58:00,
2013-01-18 09:13:00,35.3,11.0,32.50,SW,230,22.0,23.0,37,0.00,,,0.00,weatherlink.com 1.10,2013-01-18 16:13:00,
2013-01-18 09:28:00,36.4,11.0,32.50,WSW,252,18.0,25.0,35,0.00,,,0.00,weatherlink.com 1.10,2013-01-18 16:28:00,
2013-01-18 09:43:00,37.2,10.0,32.50,WSW,252,11.0,25.0,32,0.00,,,0.00,weatherlink.com 1.10,2013-01-18 16:43:00,
2013-01-18 09:58:00,36.6,11.0,32.50,West,273,6.0,13.0,35,0.00,,,0.00,weatherlink.com 1.10,2013-01-18 16:58:00,
2013-01-18 10:13:00,37.6,11.0,32.50,West,269,5.0,20.0,33,0.00,,,0.00,weatherlink.com 1.10,2013-01-18 17:13:00,
2013-01-18 10:28:00,38.3,8.0,32.50,WSW,258,11.0,22.0,29,0.00,,,0.00,weatherlink.com 1.10,2013-01-18 17:28:00,
2013-01-18 10:44:00,37.9,11.0,32.50,West,263,9.0,22.0,33,0.00,,,0.00,weatherlink.com 1.10,2013-01-18 17:44:00,
2013-01-18 10:59:00,37.8,10.0,32.50,West,260,8.0,17.0,32,0.00,,,0.00,weatherlink.com 1.10,2013-01-18 17:59:00,
2013-01-18 11:14:00,38.0,10.0,32.50,West,271,5.0,20.0,31,0.00,,,0.00,weatherlink.com 1.10,2013-01-18 18:14:00,
2013-01-18 11:29:00,38.6,10.0,32.50,WSW,242,20.0,20.0,31,0.00,,,0.00,weatherlink.com 1.10,2013-01-18 18:29:00,
2013-01-18 11:44:00,38.6,10.0,32.50,WSW,257,8.0,16.0,31,0.00,,,0.00,weatherlink.com 1.10,2013-01-18 18:44:00,
2013-01-18 11:59:00,39.1,10.0,32.50,WNW,285,13.0,13.0,30,0.00,,,0.00,weatherlink.com 1.10,2013-01-18 18:59:00,
2013-01-18 12:14:00,39.3,9.0,32.50,West,266,8.0,13.0,29,0.00,,,0.00,weatherlink.com 1.10,2013-01-18 19:14:00,
2013-01-18 12:29:00,39.9,9.0,32.50,West,269,6.0,18.0,28,0.00,,,0.00,weatherlink.com 1.10,2013-01-18 19:29:00,
2013-01-18 12:44:00,40.4,7.0,32.50,SW,225,9.0,18.0,25,0.00,,,0.00,weatherlink.com 1.10,2013-01-18 19:44:00,
2013-01-18 12:59:00,40.8,9.0,32.50,SW,235,4.0,8.0,27,0.00,,,0.00,weatherlink.com 1.10,2013-01-18 19:59:00,
2013-01-18 13:14:00,41.0,9.0,32.50,WNW,286,4.0,7.0,27,0.00,,,0.00,weatherlink.com 1.10,2013-01-18 20:14:00,
2013-01-18 13:29:00,39.0,11.0,32.50,WNW,290,6.0,19.0,31,0.00,,,0.00,weatherlink.com 1.10,2013-01-18 20:29:00,
2013-01-18 13:44:00,38.3,10.0,32.50,WNW,296,9.0,17.0,31,0.00,,,0.00,weatherlink.com 1.10,2013-01-18 20:44:00,
2013-01-18 13:59:00,39.9,11.0,32.50,WNW,302,10.0,23.0,30,0.00,,,0.00,weatherlink.com 1.10,2013-01-18 20:59:00,
2013-01-18 14:14:00,39.1,11.0,32.50,WNW,285,16.0,17.0,31,0.00,,,0.00,weatherlink.com 1.10,2013-01-18 21:14:00,
2013-01-18 14:29:00,38.6,10.0,32.50,WNW,301,6.0,15.0,31,0.00,,,0.00,weatherlink.com 1.10,2013-01-18 21:29:00,
2013-01-18 14:44:00,39.7,11.0,32.50,NNW,329,8.0,17.0,31,0.00,,,0.00,weatherlink.com 1.10,2013-01-18 21:44:00,
2013-01-18 14:59:00,39.7,13.0,32.50,WNW,282,16.0,18.0,33,0.00,,,0.00,weatherlink.com 1.10,2013-01-18 21:59:00,
2013-01-18 15:14:00,39.6,11.0,32.50,WNW,290,17.0,21.0,31,0.00,,,0.00,weatherlink.com 1.10,2013-01-18 22:14:00,
2013-01-18 15:29:00,39.4,11.0,32.50,WNW,302,13.0,22.0,31,0.00,,,0.00,weatherlink.com 1.10,2013-01-18 22:29:00,
2013-01-18 15:44:00,38.8,12.0,32.50,West,281,19.0,28.0,33,0.00,,,0.00,weatherlink.com 1.10,2013-01-18 22:44:00,
2013-01-18 15:59:00,38.4,11.0,32.50,West,268,8.0,22.0,33,0.00,,,0.00,weatherlink.com 1.10,2013-01-18 22:59:00,
2013-01-18 16:14:00,38.1,11.0,32.50,West,277,6.0,17.0,32,0.00,,,0.00,weatherlink.com 1.10,2013-01-18 23:14:00,
2013-01-18 16:29:00,37.8,11.0,32.50,WNW,300,6.0,20.0,33,0.00,,,0.00,weatherlink.com 1.10,2013-01-18 23:29:00,
2013-01-18 16:44:00,38.3,11.0,32.50,West,277,18.0,19.0,33,0.00,,,0.00,weatherlink.com 1.10,2013-01-18 23:44:00,
2013-01-18 16:59:00,38.3,10.0,32.50,WNW,288,12.0,24.0,31,0.00,,,0.00,weatherlink.com 1.10,2013-01-18 23:59:00,
2013-01-18 17:14:00,38.2,9.0,32.50,West,269,9.0,18.0,30,0.00,,,0.00,weatherlink.com 1.10,2013-01-19 00:14:00,
2013-01-18 17:29:00,37.4,10.0,32.50,WNW,300,9.0,22.0,32,0.00,,,0.00,weatherlink.com 1.10,2013-01-19 00:29:00,
2013-01-18 17:44:00,36.4,12.0,32.50,WNW,298,17.0,26.0,36,0.00,,,0.00,weatherlink.com 1.10,2013-01-19 00:44:00,
2013-01-18 17:59:00,35.2,13.0,32.50,WNW,294,19.0,25.0,40,0.00,,,0.00,weatherlink.com 1.10,2013-01-19 00:59:00,
2013-01-18 18:14:00,34.7,13.0,32.50,NW,308,14.0,24.0,41,0.00,,,0.00,weatherlink.com 1.10,2013-01-19 01:14:00,
2013-01-18 18:29:00,34.4,13.0,32.50,NW,319,14.0,22.0,42,0.00,,,0.00,weatherlink.com 1.10,2013-01-19 01:29:00,
2013-01-18 18:44:00,34.2,13.0,32.50,WNW,298,16.0,23.0,41,0.00,,,0.00,weatherlink.com 1.10,2013-01-19 01:44:00,
2013-01-18 18:59:00,34.1,12.0,32.50,WNW,290,17.0,25.0,40,0.00,,,0.00,weatherlink.com 1.10,2013-01-19 01:59:00,
2013-01-18 19:14:00,34.9,11.0,32.50,West,274,8.0,23.0,37,0.00,,,0.00,weatherlink.com 1.10,2013-01-19 02:14:00,
2013-01-18 19:29:00,34.6,11.0,32.50,WNW,286,11.0,22.0,37,0.00,,,0.00,weatherlink.com 1.10,2013-01-19 02:29:00,
2013-01-18 19:44:00,34.6,10.0,32.50,WNW,296,18.0,27.0,36,0.00,,,0.00,weatherlink.com 1.10,2013-01-19 02:44:00,
2013-01-18 19:59:00,34.7,10.0,32.50,WNW,284,15.0,22.0,35,0.00,,,0.00,weatherlink.com 1.10,2013-01-19 02:59:00,
2013-01-18 20:14:00,34.7,10.0,32.50,WNW,293,17.0,25.0,35,0.00,,,0.00,weatherlink.com 1.10,2013-01-19 03:14:00,
2013-01-18 20:29:00,34.4,10.0,32.50,WNW,288,15.0,22.0,36,0.00,,,0.00,weatherlink.com 1.10,2013-01-19 03:29:00,
2013-01-18 20:44:00,34.7,9.0,32.50,WNW,299,16.0,23.0,34,0.00,,,0.00,weatherlink.com 1.10,2013-01-19 03:44:00,
2013-01-18 20:59:00,34.8,9.0,32.50,WNW,296,10.0,23.0,34,0.00,,,0.00,weatherlink.com 1.10,2013-01-19 03:59:00,
2013-01-18 21:14:00,34.8,9.0,32.50,West,273,17.0,21.0,34,0.00,,,0.00,weatherlink.com 1.10,2013-01-19 04:14:00,
2013-01-18 21:29:00,34.6,9.0,32.50,NW,316,8.0,23.0,34,0.00,,,0.00,weatherlink.com 1.10,2013-01-19 04:29:00,
2013-01-18 21:44:00,34.8,8.0,32.50,WNW,288,7.0,18.0,33,0.00,,,0.00,weatherlink.com 1.10,2013-01-19 04:44:00,
2013-01-18 21:59:00,34.3,8.0,32.50,WNW,302,6.0,14.0,34,0.00,,,0.00,weatherlink.com 1.10,2013-01-19 04:59:00,
2013-01-18 22:14:00,34.8,8.0,32.50,West,277,15.0,20.0,33,0.00,,,0.00,weatherlink.com 1.10,2013-01-19 05:14:00,
2013-01-18 22:29:00,35.1,8.0,32.50,WNW,302,9.0,22.0,32,0.00,,,0.00,weatherlink.com 1.10,2013-01-19 05:29:00,
2013-01-18 22:44:00,35.0,8.0,32.50,WNW,298,16.0,22.0,32,0.00,,,0.00,weatherlink.com 1.10,2013-01-19 05:44:00,
2013-01-18 22:59:00,35.0,8.0,32.50,NW,305,13.0,19.0,32,0.00,,,0.00,weatherlink.com 1.10,2013-01-19 05:59:00,
2013-01-18 23:14:00,34.9,8.0,32.50,WNW,294,14.0,19.0,32,0.00,,,0.00,weatherlink.com 1.10,2013-01-19 06:14:00,
2013-01-18 23:29:00,-999.0,-99.9,32.50,North,-999,-999.0,-999.0,-999,0.00,,,0.00,weatherlink.com 1.10,2013-01-19 06:29:00,
2013-01-18 23:44:00,-999.0,-99.9,32.50,North,-999,-999.0,-999.0,-999,0.00,,,0.00,weatherlink.com 1.10,2013-01-19 06:44:00,
2013-01-18 23:59:00,-999.0,-99.9,32.50,North,-999,-999.0,-999.0,-999,0.00,,,0.00,weatherlink.com 1.10,2013-01-19 06:59:00,